sensor_id;sensor_type;location;lat;lon;timestamp;pressure;altitude;pressure_sealevel;temperature;humidity
50242;BME280;36126;43.222;27.874;2022-07-29T00:01:50;101278.75;;;20.27;100.00
50242;BME280;36126;43.222;27.874;2022-07-29T00:04:18;101308.94;;;20.27;100.00
50242;BME280;36126;43.222;27.874;2022-07-29T00:06:44;101310.66;;;20.17;100.00
50242;BME280;36126;43.222;27.874;2022-07-29T00:09:10;101303.31;;;20.21;100.00
50242;BME280;36126;43.222;27.874;2022-07-29T00:11:35;101282.75;;;20.21;100.00
50242;BME280;36126;43.222;27.874;2022-07-29T00:14:01;101310.59;;;20.43;100.00
50242;BME280;36126;43.222;27.874;2022-07-29T00:16:27;101301.53;;;20.46;100.00
50242;BME280;36126;43.222;27.874;2022-07-29T00:18:52;101309.13;;;20.56;100.00
50242;BME280;36126;43.222;27.874;2022-07-29T00:21:18;101311.38;;;20.59;100.00
50242;BME280;36126;43.222;27.874;2022-07-29T00:23:43;101309.16;;;20.51;100.00
50242;BME280;36126;43.222;27.874;2022-07-29T00:26:09;101311.66;;;20.58;100.00
50242;BME280;36126;43.222;27.874;2022-07-29T00:28:34;101298.19;;;20.39;100.00
50242;BME280;36126;43.222;27.874;2022-07-29T00:31:00;101301.66;;;20.20;100.00
50242;BME280;36126;43.222;27.874;2022-07-29T00:33:25;101298.78;;;20.26;100.00
50242;BME280;36126;43.222;27.874;2022-07-29T00:35:51;101312.34;;;20.24;100.00
50242;BME280;36126;43.222;27.874;2022-07-29T00:38:18;101314.59;;;20.32;100.00
50242;BME280;36126;43.222;27.874;2022-07-29T00:40:45;101322.53;;;20.19;100.00
50242;BME280;36126;43.222;27.874;2022-07-29T00:43:12;101313.53;;;20.12;100.00
50242;BME280;36126;43.222;27.874;2022-07-29T00:45:39;101313.22;;;20.14;100.00
50242;BME280;36126;43.222;27.874;2022-07-29T00:48:05;101319.72;;;20.09;100.00
50242;BME280;36126;43.222;27.874;2022-07-29T00:50:32;101312.13;;;20.10;100.00
50242;BME280;36126;43.222;27.874;2022-07-29T00:52:58;101311.25;;;20.14;100.00
50242;BME280;36126;43.222;27.874;2022-07-29T00:55:24;101302.81;;;19.99;100.00
50242;BME280;36126;43.222;27.874;2022-07-29T00:57:52;101303.13;;;19.97;100.00
50242;BME280;36126;43.222;27.874;2022-07-29T01:00:24;101306.19;;;20.16;100.00
50242;BME280;36126;43.222;27.874;2022-07-29T01:02:50;101283.09;;;19.94;100.00
50242;BME280;36126;43.222;27.874;2022-07-29T01:05:21;101284.50;;;19.96;100.00
50242;BME280;36126;43.222;27.874;2022-07-29T01:07:49;101301.38;;;20.12;100.00
50242;BME280;36126;43.222;27.874;2022-07-29T01:10:16;101302.81;;;19.99;100.00
50242;BME280;36126;43.222;27.874;2022-07-29T01:12:44;101280.56;;;19.92;100.00
50242;BME280;36126;43.222;27.874;2022-07-29T01:15:12;101297.19;;;19.99;100.00
50242;BME280;36126;43.222;27.874;2022-07-29T01:26:23;101289.31;;;19.80;100.00
50242;BME280;36126;43.222;27.874;2022-07-29T01:31:59;101294.66;;;19.92;100.00
50242;BME280;36126;43.222;27.874;2022-07-29T01:34:35;101296.06;;;20.00;100.00
50242;BME280;36126;43.222;27.874;2022-07-29T01:37:14;101292.38;;;20.10;100.00
50242;BME280;36126;43.222;27.874;2022-07-29T01:39:41;101280.81;;;20.06;100.00
50242;BME280;36126;43.222;27.874;2022-07-29T01:42:23;101291.56;;;19.88;100.00
50242;BME280;36126;43.222;27.874;2022-07-29T01:45:12;101288.44;;;19.95;100.00
50242;BME280;36126;43.222;27.874;2022-07-29T01:50:18;101302.53;;;20.05;100.00
50242;BME280;36126;43.222;27.874;2022-07-29T01:53:00;101287.03;;;20.03;100.00
50242;BME280;36126;43.222;27.874;2022-07-29T01:55:37;101291.00;;;19.71;100.00
50242;BME280;36126;43.222;27.874;2022-07-29T01:58:05;101285.38;;;19.71;100.00
50242;BME280;36126;43.222;27.874;2022-07-29T02:00:32;101255.22;;;19.61;100.00
50242;BME280;36126;43.222;27.874;2022-07-29T02:03:07;101289.31;;;19.70;100.00
50242;BME280;36126;43.222;27.874;2022-07-29T02:05:35;101258.31;;;19.60;100.00
50242;BME280;36126;43.222;27.874;2022-07-29T02:08:02;101285.66;;;19.59;100.00
50242;BME280;36126;43.222;27.874;2022-07-29T02:10:31;101280.00;;;19.59;100.00
50242;BME280;36126;43.222;27.874;2022-07-29T02:13:02;101274.94;;;19.61;100.00
50242;BME280;36126;43.222;27.874;2022-07-29T02:15:31;101266.19;;;19.32;100.00
50242;BME280;36126;43.222;27.874;2022-07-29T02:18:09;101275.50;;;19.22;100.00
50242;BME280;36126;43.222;27.874;2022-07-29T02:20:37;101275.78;;;19.20;100.00
50242;BME280;36126;43.222;27.874;2022-07-29T02:23:06;101276.06;;;19.34;100.00
50242;BME280;36126;43.222;27.874;2022-07-29T02:25:32;101274.41;;;19.33;100.00
50242;BME280;36126;43.222;27.874;2022-07-29T02:27:59;101252.41;;;19.15;100.00
50242;BME280;36126;43.222;27.874;2022-07-29T02:30:26;101278.59;;;19.36;100.00
50242;BME280;36126;43.222;27.874;2022-07-29T02:32:53;101266.50;;;19.41;100.00
50242;BME280;36126;43.222;27.874;2022-07-29T02:35:20;101267.91;;;19.48;100.00
50242;BME280;36126;43.222;27.874;2022-07-29T02:37:47;101274.38;;;19.38;100.00
50242;BME280;36126;43.222;27.874;2022-07-29T02:40:35;101278.59;;;19.20;100.00
50242;BME280;36126;43.222;27.874;2022-07-29T02:43:05;101285.38;;;19.14;100.00
50242;BME280;36126;43.222;27.874;2022-07-29T02:45:32;101288.16;;;19.19;100.00
50242;BME280;36126;43.222;27.874;2022-07-29T02:47:59;101290.41;;;19.12;100.00
50242;BME280;36126;43.222;27.874;2022-07-29T02:50:34;101294.66;;;19.15;100.00
50242;BME280;36126;43.222;27.874;2022-07-29T02:53:08;101295.22;;;19.17;100.00
50242;BME280;36126;43.222;27.874;2022-07-29T02:55:43;101287.31;;;19.14;100.00
50242;BME280;36126;43.222;27.874;2022-07-29T02:58:31;101296.63;;;19.19;100.00
50242;BME280;36126;43.222;27.874;2022-07-29T03:01:08;101290.97;;;19.04;100.00
50242;BME280;36126;43.222;27.874;2022-07-29T03:03:37;101275.50;;;18.96;100.00
50242;BME280;36126;43.222;27.874;2022-07-29T03:06:04;101304.78;;;19.11;100.00
50242;BME280;36126;43.222;27.874;2022-07-29T03:08:31;101290.19;;;19.29;100.00
50242;BME280;36126;43.222;27.874;2022-07-29T03:10:58;101281.13;;;19.07;100.00
50242;BME280;36126;43.222;27.874;2022-07-29T03:13:25;101309.59;;;19.31;100.00
50242;BME280;36126;43.222;27.874;2022-07-29T03:15:51;101300.59;;;19.44;100.00
50242;BME280;36126;43.222;27.874;2022-07-29T03:18:17;101283.41;;;19.41;100.00
50242;BME280;36126;43.222;27.874;2022-07-29T03:20:43;101303.69;;;19.37;100.00
50242;BME280;36126;43.222;27.874;2022-07-29T03:23:09;101315.22;;;19.57;100.00
50242;BME280;36126;43.222;27.874;2022-07-29T03:25:34;101315.81;;;19.64;100.00
50242;BME280;36126;43.222;27.874;2022-07-29T03:28:00;101315.25;;;19.87;100.00
50242;BME280;36126;43.222;27.874;2022-07-29T03:30:26;101316.94;;;19.94;100.00
50242;BME280;36126;43.222;27.874;2022-07-29T03:32:52;101311.88;;;19.85;100.00
50242;BME280;36126;43.222;27.874;2022-07-29T03:35:19;101305.09;;;19.81;100.00
50242;BME280;36126;43.222;27.874;2022-07-29T03:37:45;101301.41;;;19.91;100.00
50242;BME280;36126;43.222;27.874;2022-07-29T03:40:16;101311.25;;;20.09;100.00
50242;BME280;36126;43.222;27.874;2022-07-29T03:42:43;101315.47;;;20.17;100.00
50242;BME280;36126;43.222;27.874;2022-07-29T03:45:13;101306.47;;;19.99;100.00
50242;BME280;36126;43.222;27.874;2022-07-29T03:47:42;101302.19;;;20.22;100.00
50242;BME280;36126;43.222;27.874;2022-07-29T03:50:11;101310.91;;;20.31;100.00
50242;BME280;36126;43.222;27.874;2022-07-29T03:52:39;101299.59;;;20.36;100.00
50242;BME280;36126;43.222;27.874;2022-07-29T03:55:05;101323.56;;;20.44;100.00
50242;BME280;36126;43.222;27.874;2022-07-29T03:57:32;101319.81;;;20.64;100.00
50242;BME280;36126;43.222;27.874;2022-07-29T03:59:59;101312.75;;;20.72;100.00
50242;BME280;36126;43.222;27.874;2022-07-29T04:02:26;101321.13;;;20.93;100.00
50242;BME280;36126;43.222;27.874;2022-07-29T04:04:52;101284.50;;;20.77;100.00
50242;BME280;36126;43.222;27.874;2022-07-29T04:07:18;101309.78;;;20.98;100.00
50242;BME280;36126;43.222;27.874;2022-07-29T04:09:44;101317.66;;;21.06;100.00
50242;BME280;36126;43.222;27.874;2022-07-29T04:12:09;101316.47;;;21.12;100.00
50242;BME280;36126;43.222;27.874;2022-07-29T04:14:35;101310.81;;;21.12;100.00
50242;BME280;36126;43.222;27.874;2022-07-29T04:17:02;101310.53;;;21.14;100.00
50242;BME280;36126;43.222;27.874;2022-07-29T04:19:27;101311.22;;;21.35;100.00
50242;BME280;36126;43.222;27.874;2022-07-29T04:21:53;101316.31;;;21.38;100.00
50242;BME280;36126;43.222;27.874;2022-07-29T04:24:19;101311.16;;;21.45;100.00
50242;BME280;36126;43.222;27.874;2022-07-29T04:26:48;101296.72;;;21.47;100.00
50242;BME280;36126;43.222;27.874;2022-07-29T04:29:13;101316.66;;;21.66;100.00
50242;BME280;36126;43.222;27.874;2022-07-29T04:31:40;101314.44;;;21.92;100.00
50242;BME280;36126;43.222;27.874;2022-07-29T04:34:06;101313.34;;;22.12;100.00
50242;BME280;36126;43.222;27.874;2022-07-29T04:36:32;101308.00;;;22.40;100.00
50242;BME280;36126;43.222;27.874;2022-07-29T04:38:57;101303.88;;;23.33;100.00
50242;BME280;36126;43.222;27.874;2022-07-29T04:41:23;101264.59;;;24.98;100.00
50242;BME280;36126;43.222;27.874;2022-07-29T04:43:49;101273.69;;;26.97;100.00
50242;BME280;36126;43.222;27.874;2022-07-29T04:46:14;101276.78;;;28.40;100.00
50242;BME280;36126;43.222;27.874;2022-07-29T04:48:40;101273.75;;;29.17;100.00
50242;BME280;36126;43.222;27.874;2022-07-29T04:51:05;101272.09;;;29.83;100.00
50242;BME280;36126;43.222;27.874;2022-07-29T04:53:31;101274.31;;;30.35;100.00
50242;BME280;36126;43.222;27.874;2022-07-29T04:55:56;101264.66;;;30.77;100.00
50242;BME280;36126;43.222;27.874;2022-07-29T04:58:22;101281.38;;;31.57;100.00
50242;BME280;36126;43.222;27.874;2022-07-29T05:00:49;101270.66;;;32.14;100.00
50242;BME280;36126;43.222;27.874;2022-07-29T05:03:15;101271.25;;;32.19;100.00
50242;BME280;36126;43.222;27.874;2022-07-29T05:05:40;101256.69;;;32.80;100.00
50242;BME280;36126;43.222;27.874;2022-07-29T05:08:07;101257.53;;;33.35;100.00
50242;BME280;36126;43.222;27.874;2022-07-29T05:10:33;101245.41;;;32.71;100.00
50242;BME280;36126;43.222;27.874;2022-07-29T05:13:06;101268.84;;;33.09;100.00
50242;BME280;36126;43.222;27.874;2022-07-29T05:15:32;101272.31;;;32.47;100.00
50242;BME280;36126;43.222;27.874;2022-07-29T05:17:58;101256.72;;;32.64;100.00
50242;BME280;36126;43.222;27.874;2022-07-29T05:20:24;101271.00;;;34.17;100.00
50242;BME280;36126;43.222;27.874;2022-07-29T05:22:54;101273.59;;;35.02;100.00
50242;BME280;36126;43.222;27.874;2022-07-29T05:25:20;101263.16;;;35.55;100.00
50242;BME280;36126;43.222;27.874;2022-07-29T05:27:45;101274.34;;;36.42;100.00
50242;BME280;36126;43.222;27.874;2022-07-29T05:30:11;101256.97;;;37.02;100.00
50242;BME280;36126;43.222;27.874;2022-07-29T05:32:36;101267.22;;;36.88;100.00
50242;BME280;36126;43.222;27.874;2022-07-29T05:35:02;101267.53;;;36.72;100.00
50242;BME280;36126;43.222;27.874;2022-07-29T05:37:28;101262.50;;;37.32;100.00
50242;BME280;36126;43.222;27.874;2022-07-29T05:39:53;101253.13;;;37.78;98.00
50242;BME280;36126;43.222;27.874;2022-07-29T05:42:18;101275.16;;;38.23;94.85
50242;BME280;36126;43.222;27.874;2022-07-29T05:44:44;101255.16;;;37.67;96.69
50242;BME280;36126;43.222;27.874;2022-07-29T05:47:10;101250.69;;;38.45;93.48
50242;BME280;36126;43.222;27.874;2022-07-29T05:49:35;101262.53;;;39.12;88.47
50242;BME280;36126;43.222;27.874;2022-07-29T05:52:01;101263.41;;;39.02;91.60
50242;BME280;36126;43.222;27.874;2022-07-29T05:54:26;101248.47;;;39.07;91.32
50242;BME280;36126;43.222;27.874;2022-07-29T05:56:52;101267.00;;;39.39;87.60
50242;BME280;36126;43.222;27.874;2022-07-29T05:59:17;101267.75;;;39.61;86.42
50242;BME280;36126;43.222;27.874;2022-07-29T06:01:43;101277.78;;;40.65;83.04
50242;BME280;36126;43.222;27.874;2022-07-29T06:04:08;101269.44;;;41.05;78.49
50242;BME280;36126;43.222;27.874;2022-07-29T06:06:34;101268.72;;;40.03;78.89
50242;BME280;36126;43.222;27.874;2022-07-29T06:09:01;101269.53;;;40.04;79.02
50242;BME280;36126;43.222;27.874;2022-07-29T06:11:27;101277.34;;;40.67;78.85
50242;BME280;36126;43.222;27.874;2022-07-29T06:13:52;101272.50;;;41.25;75.68
50242;BME280;36126;43.222;27.874;2022-07-29T06:16:18;101277.44;;;41.90;78.63
50242;BME280;36126;43.222;27.874;2022-07-29T06:18:44;101274.06;;;42.19;75.96
50242;BME280;36126;43.222;27.874;2022-07-29T06:21:09;101268.28;;;41.92;75.29
50242;BME280;36126;43.222;27.874;2022-07-29T06:23:36;101273.84;;;41.83;76.62
50242;BME280;36126;43.222;27.874;2022-07-29T06:26:02;101272.50;;;39.96;82.75
50242;BME280;36126;43.222;27.874;2022-07-29T06:28:28;101256.06;;;38.22;89.20
50242;BME280;36126;43.222;27.874;2022-07-29T06:30:53;101250.25;;;38.58;90.22
50242;BME280;36126;43.222;27.874;2022-07-29T06:33:19;101270.97;;;37.91;93.30
50242;BME280;36126;43.222;27.874;2022-07-29T06:35:45;101264.78;;;36.90;96.82
50242;BME280;36126;43.222;27.874;2022-07-29T06:38:13;101263.09;;;37.77;93.80
50242;BME280;36126;43.222;27.874;2022-07-29T06:40:45;101269.84;;;39.57;83.54
50242;BME280;36126;43.222;27.874;2022-07-29T06:43:38;101261.97;;;41.04;76.95
50242;BME280;36126;43.222;27.874;2022-07-29T06:46:06;101270.22;;;41.09;75.98
50242;BME280;36126;43.222;27.874;2022-07-29T06:48:33;101277.31;;;41.43;74.43
50242;BME280;36126;43.222;27.874;2022-07-29T06:50:59;101247.78;;;41.06;72.46
50242;BME280;36126;43.222;27.874;2022-07-29T06:53:25;101262.56;;;39.20;79.18
50242;BME280;36126;43.222;27.874;2022-07-29T06:55:51;101261.38;;;37.73;85.00
50242;BME280;36126;43.222;27.874;2022-07-29T06:58:16;101254.75;;;35.42;94.56
50242;BME280;36126;43.222;27.874;2022-07-29T07:00:48;101237.75;;;32.27;100.00
50242;BME280;36126;43.222;27.874;2022-07-29T07:03:15;101249.97;;;31.48;100.00
50242;BME280;36126;43.222;27.874;2022-07-29T07:05:41;101244.69;;;31.50;100.00
50242;BME280;36126;43.222;27.874;2022-07-29T07:08:06;101247.72;;;31.00;100.00
50242;BME280;36126;43.222;27.874;2022-07-29T07:10:33;101250.81;;;30.42;100.00
50242;BME280;36126;43.222;27.874;2022-07-29T07:12:59;101248.25;;;30.90;100.00
50242;BME280;36126;43.222;27.874;2022-07-29T07:15:25;101244.91;;;31.29;100.00
50242;BME280;36126;43.222;27.874;2022-07-29T07:17:51;101258.09;;;31.46;100.00
50242;BME280;36126;43.222;27.874;2022-07-29T07:20:17;101253.66;;;31.32;100.00
50242;BME280;36126;43.222;27.874;2022-07-29T07:22:43;101258.16;;;31.05;100.00
50242;BME280;36126;43.222;27.874;2022-07-29T07:25:08;101250.34;;;31.46;100.00
50242;BME280;36126;43.222;27.874;2022-07-29T07:27:34;101259.72;;;32.03;100.00
50242;BME280;36126;43.222;27.874;2022-07-29T07:30:02;101255.09;;;32.31;100.00
50242;BME280;36126;43.222;27.874;2022-07-29T07:32:27;101259.59;;;31.84;100.00
50242;BME280;36126;43.222;27.874;2022-07-29T07:34:54;101259.44;;;31.77;100.00
50242;BME280;36126;43.222;27.874;2022-07-29T07:37:19;101256.41;;;31.57;100.00
50242;BME280;36126;43.222;27.874;2022-07-29T07:39:45;101254.00;;;31.59;100.00
50242;BME280;36126;43.222;27.874;2022-07-29T07:42:11;101233.84;;;31.43;100.00
50242;BME280;36126;43.222;27.874;2022-07-29T07:44:38;101264.91;;;31.53;100.00
50242;BME280;36126;43.222;27.874;2022-07-29T07:47:05;101264.25;;;32.04;100.00
50242;BME280;36126;43.222;27.874;2022-07-29T07:49:30;101253.22;;;32.38;100.00
50242;BME280;36126;43.222;27.874;2022-07-29T07:51:56;101266.88;;;32.10;97.00
50242;BME280;36126;43.222;27.874;2022-07-29T07:54:21;101272.84;;;31.73;99.81
50242;BME280;36126;43.222;27.874;2022-07-29T07:56:47;101265.16;;;31.77;100.00
50242;BME280;36126;43.222;27.874;2022-07-29T07:59:15;101270.13;;;31.35;100.00
50242;BME280;36126;43.222;27.874;2022-07-29T08:01:41;101268.41;;;31.18;100.00
50242;BME280;36126;43.222;27.874;2022-07-29T08:04:06;101265.84;;;30.76;100.00
50242;BME280;36126;43.222;27.874;2022-07-29T08:06:33;101270.63;;;30.72;100.00
50242;BME280;36126;43.222;27.874;2022-07-29T08:09:00;101257.38;;;30.80;100.00
50242;BME280;36126;43.222;27.874;2022-07-29T08:11:26;101257.63;;;31.15;100.00
50242;BME280;36126;43.222;27.874;2022-07-29T08:13:51;101243.41;;;31.19;100.00
50242;BME280;36126;43.222;27.874;2022-07-29T08:16:17;101269.59;;;31.17;100.00
50242;BME280;36126;43.222;27.874;2022-07-29T08:18:45;101265.53;;;31.47;98.87
50242;BME280;36126;43.222;27.874;2022-07-29T08:21:11;101268.63;;;31.26;99.42
50242;BME280;36126;43.222;27.874;2022-07-29T08:23:37;101271.97;;;31.15;100.00
50242;BME280;36126;43.222;27.874;2022-07-29T08:26:12;101272.47;;;31.17;100.00
50242;BME280;36126;43.222;27.874;2022-07-29T08:28:42;101259.88;;;31.22;100.00
50242;BME280;36126;43.222;27.874;2022-07-29T08:31:12;101267.63;;;31.62;98.22
50242;BME280;36126;43.222;27.874;2022-07-29T08:33:38;101251.91;;;31.72;97.40
50242;BME280;36126;43.222;27.874;2022-07-29T08:36:05;101259.06;;;31.78;95.48
50242;BME280;36126;43.222;27.874;2022-07-29T08:38:31;101263.00;;;31.74;95.70
50242;BME280;36126;43.222;27.874;2022-07-29T08:40:58;101266.34;;;31.47;93.76
50242;BME280;36126;43.222;27.874;2022-07-29T08:43:23;101257.84;;;31.51;95.20
50242;BME280;36126;43.222;27.874;2022-07-29T08:45:50;101234.50;;;31.36;94.38
50242;BME280;36126;43.222;27.874;2022-07-29T08:48:23;101257.25;;;32.18;91.62
50242;BME280;36126;43.222;27.874;2022-07-29T08:50:55;101254.94;;;32.24;89.29
50242;BME280;36126;43.222;27.874;2022-07-29T08:53:21;101245.34;;;32.35;88.08
50242;BME280;36126;43.222;27.874;2022-07-29T08:55:49;101244.75;;;32.62;88.40
50242;BME280;36126;43.222;27.874;2022-07-29T08:58:16;101243.44;;;32.59;85.47
50242;BME280;36126;43.222;27.874;2022-07-29T09:00:44;101240.34;;;32.00;87.19
50242;BME280;36126;43.222;27.874;2022-07-29T09:03:15;101237.09;;;31.70;89.78
50242;BME280;36126;43.222;27.874;2022-07-29T09:05:42;101238.38;;;31.88;89.57
50242;BME280;36126;43.222;27.874;2022-07-29T09:08:08;101229.88;;;32.24;86.70
50242;BME280;36126;43.222;27.874;2022-07-29T09:10:37;101219.94;;;32.37;84.88
50242;BME280;36126;43.222;27.874;2022-07-29T09:13:03;101230.53;;;32.33;85.98
50242;BME280;36126;43.222;27.874;2022-07-29T09:15:28;101222.78;;;32.53;85.13
50242;BME280;36126;43.222;27.874;2022-07-29T09:17:54;101221.44;;;32.31;85.41
50242;BME280;36126;43.222;27.874;2022-07-29T09:20:22;101231.78;;;32.04;87.78
50242;BME280;36126;43.222;27.874;2022-07-29T09:22:49;101222.06;;;31.93;88.33
50242;BME280;36126;43.222;27.874;2022-07-29T09:28:12;101222.81;;;31.90;88.40
50242;BME280;36126;43.222;27.874;2022-07-29T09:30:54;101213.00;;;31.91;88.28
50242;BME280;36126;43.222;27.874;2022-07-29T09:33:22;101220.31;;;32.04;89.67
50242;BME280;36126;43.222;27.874;2022-07-29T09:36:06;101226.81;;;31.85;91.13
50242;BME280;36126;43.222;27.874;2022-07-29T09:38:33;101223.00;;;31.97;91.30
50242;BME280;36126;43.222;27.874;2022-07-29T09:41:01;101213.38;;;31.73;92.60
50242;BME280;36126;43.222;27.874;2022-07-29T09:43:27;101224.78;;;32.01;94.56
50242;BME280;36126;43.222;27.874;2022-07-29T09:45:54;101197.16;;;31.81;96.89
50242;BME280;36126;43.222;27.874;2022-07-29T09:48:24;101218.38;;;31.60;99.91
50242;BME280;36126;43.222;27.874;2022-07-29T09:50:50;101223.38;;;31.63;100.00
50242;BME280;36126;43.222;27.874;2022-07-29T09:53:35;101212.16;;;31.74;100.00
50242;BME280;36126;43.222;27.874;2022-07-29T09:56:03;101208.31;;;31.54;100.00
50242;BME280;36126;43.222;27.874;2022-07-29T09:58:29;101203.03;;;31.56;100.00
50242;BME280;36126;43.222;27.874;2022-07-29T10:00:55;101206.69;;;31.69;100.00
50242;BME280;36126;43.222;27.874;2022-07-29T10:03:21;101214.84;;;31.83;100.00
50242;BME280;36126;43.222;27.874;2022-07-29T10:06:07;101211.69;;;32.04;100.00
50242;BME280;36126;43.222;27.874;2022-07-29T10:08:33;101199.09;;;31.61;100.00
50242;BME280;36126;43.222;27.874;2022-07-29T10:11:13;101213.66;;;31.40;100.00
50242;BME280;36126;43.222;27.874;2022-07-29T10:13:41;101209.09;;;31.83;100.00
50242;BME280;36126;43.222;27.874;2022-07-29T10:16:06;101218.75;;;31.91;100.00
50242;BME280;36126;43.222;27.874;2022-07-29T10:18:32;101202.34;;;32.07;97.89
50242;BME280;36126;43.222;27.874;2022-07-29T10:20:59;101213.28;;;32.33;98.61
50242;BME280;36126;43.222;27.874;2022-07-29T10:23:27;101226.34;;;32.31;97.49
50242;BME280;36126;43.222;27.874;2022-07-29T10:25:53;101204.56;;;31.82;99.85
50242;BME280;36126;43.222;27.874;2022-07-29T10:28:19;101216.72;;;31.75;98.86
50242;BME280;36126;43.222;27.874;2022-07-29T10:30:45;101222.06;;;31.61;100.00
50242;BME280;36126;43.222;27.874;2022-07-29T10:34:03;101200.56;;;31.70;100.00
50242;BME280;36126;43.222;27.874;2022-07-29T10:38:42;101207.16;;;31.71;97.63
50242;BME280;36126;43.222;27.874;2022-07-29T10:46:39;101212.53;;;31.28;97.98
50242;BME280;36126;43.222;27.874;2022-07-29T10:49:20;101222.22;;;31.24;97.29
50242;BME280;36126;43.222;27.874;2022-07-29T11:07:25;101213.34;;;31.57;93.82
50242;BME280;36126;43.222;27.874;2022-07-29T11:15:21;101202.00;;;31.32;98.46
50242;BME280;36126;43.222;27.874;2022-07-29T11:20:45;101197.38;;;31.15;98.66
50242;BME280;36126;43.222;27.874;2022-07-29T11:29:03;101191.59;;;31.88;93.79
50242;BME280;36126;43.222;27.874;2022-07-29T11:31:40;101201.50;;;31.75;98.64
50242;BME280;36126;43.222;27.874;2022-07-29T11:34:19;101200.78;;;32.10;94.91
50242;BME280;36126;43.222;27.874;2022-07-29T11:45:07;101191.22;;;31.74;87.81
50242;BME280;36126;43.222;27.874;2022-07-29T11:48:02;101189.66;;;31.60;89.40
50242;BME280;36126;43.222;27.874;2022-07-29T11:50:35;101173.53;;;31.71;93.64
50242;BME280;36126;43.222;27.874;2022-07-29T11:53:11;101193.91;;;31.82;86.40
50242;BME280;36126;43.222;27.874;2022-07-29T11:55:38;101183.47;;;31.46;92.65
50242;BME280;36126;43.222;27.874;2022-07-29T11:58:04;101198.19;;;31.44;99.90
50242;BME280;36126;43.222;27.874;2022-07-29T12:03:01;101175.66;;;31.91;91.15
50242;BME280;36126;43.222;27.874;2022-07-29T12:05:42;101166.81;;;31.51;88.51
50242;BME280;36126;43.222;27.874;2022-07-29T12:08:14;101175.22;;;31.28;98.40
50242;BME280;36126;43.222;27.874;2022-07-29T12:10:43;101141.91;;;31.40;100.00
50242;BME280;36126;43.222;27.874;2022-07-29T12:13:10;101159.78;;;31.49;100.00
50242;BME280;36126;43.222;27.874;2022-07-29T12:15:36;101174.56;;;31.63;96.13
50242;BME280;36126;43.222;27.874;2022-07-29T12:18:15;101166.47;;;31.53;94.99
50242;BME280;36126;43.222;27.874;2022-07-29T12:20:42;101163.72;;;31.73;100.00
50242;BME280;36126;43.222;27.874;2022-07-29T12:23:08;101161.31;;;31.75;86.24
50242;BME280;36126;43.222;27.874;2022-07-29T12:25:35;101160.44;;;31.58;91.53
50242;BME280;36126;43.222;27.874;2022-07-29T12:28:20;101152.13;;;31.69;89.42
50242;BME280;36126;43.222;27.874;2022-07-29T12:30:49;101139.06;;;31.71;91.66
50242;BME280;36126;43.222;27.874;2022-07-29T12:33:21;101144.44;;;31.73;84.01
50242;BME280;36126;43.222;27.874;2022-07-29T12:35:54;101142.22;;;31.66;89.82
50242;BME280;36126;43.222;27.874;2022-07-29T12:38:21;101150.00;;;31.82;90.77
50242;BME280;36126;43.222;27.874;2022-07-29T12:40:48;101147.13;;;31.66;85.03
50242;BME280;36126;43.222;27.874;2022-07-29T12:43:19;101140.25;;;31.54;92.24
50242;BME280;36126;43.222;27.874;2022-07-29T12:45:55;101135.53;;;31.46;100.00
50242;BME280;36126;43.222;27.874;2022-07-29T12:48:42;101134.53;;;31.70;95.98
50242;BME280;36126;43.222;27.874;2022-07-29T12:51:09;101138.28;;;31.43;100.00
50242;BME280;36126;43.222;27.874;2022-07-29T12:53:36;101138.28;;;31.43;100.00
50242;BME280;36126;43.222;27.874;2022-07-29T12:56:03;101087.84;;;31.26;100.00
50242;BME280;36126;43.222;27.874;2022-07-29T13:03:51;101119.41;;;31.74;96.26
50242;BME280;36126;43.222;27.874;2022-07-29T13:11:38;101126.22;;;31.65;100.00
50242;BME280;36126;43.222;27.874;2022-07-29T13:14:06;101111.63;;;31.90;97.45
50242;BME280;36126;43.222;27.874;2022-07-29T13:16:31;101136.84;;;31.81;92.49
50242;BME280;36126;43.222;27.874;2022-07-29T13:19:11;101129.06;;;31.81;95.63
50242;BME280;36126;43.222;27.874;2022-07-29T13:21:38;101133.97;;;31.65;95.96
50242;BME280;36126;43.222;27.874;2022-07-29T13:24:05;101120.50;;;31.37;97.94
50242;BME280;36126;43.222;27.874;2022-07-29T13:26:31;101103.41;;;31.41;97.86
50242;BME280;36126;43.222;27.874;2022-07-29T13:28:57;101124.53;;;31.64;98.51
50242;BME280;36126;43.222;27.874;2022-07-29T13:31:23;101127.31;;;31.61;100.00
50242;BME280;36126;43.222;27.874;2022-07-29T13:33:49;101123.63;;;31.60;100.00
50242;BME280;36126;43.222;27.874;2022-07-29T13:36:15;101121.38;;;31.69;100.00
50242;BME280;36126;43.222;27.874;2022-07-29T13:38:40;101104.13;;;31.69;100.00
50242;BME280;36126;43.222;27.874;2022-07-29T13:41:06;101120.88;;;31.35;100.00
50242;BME280;36126;43.222;27.874;2022-07-29T13:43:31;101127.81;;;31.34;100.00
50242;BME280;36126;43.222;27.874;2022-07-29T13:45:58;101115.78;;;31.29;100.00
50242;BME280;36126;43.222;27.874;2022-07-29T13:48:24;101121.97;;;31.15;100.00
50242;BME280;36126;43.222;27.874;2022-07-29T13:50:50;101127.63;;;31.27;100.00
50242;BME280;36126;43.222;27.874;2022-07-29T13:53:15;101128.34;;;31.08;100.00
50242;BME280;36126;43.222;27.874;2022-07-29T13:55:41;101116.75;;;31.04;100.00